createdAt,value
2023-04-20T00:00:36.332Z,0.50
2023-04-20T00:03:04.405Z,0.93
2023-04-20T00:05:32.313Z,0.80
2023-04-20T00:08:00.088Z,0.87
2023-04-20T00:10:27.819Z,0.63
2023-04-20T00:12:55.613Z,0.50
2023-04-20T00:15:23.362Z,0.77
2023-04-20T00:17:51.789Z,1.25
2023-04-20T00:20:19.461Z,0.60
2023-04-20T00:22:47.071Z,0.80
2023-04-20T00:25:14.781Z,0.60
2023-04-20T00:27:43.478Z,0.80
2023-04-20T00:30:11.586Z,0.70
2023-04-20T00:32:39.262Z,0.70
2023-04-20T00:35:07.248Z,1.17
2023-04-20T00:37:36.043Z,0.98
2023-04-20T00:40:04.503Z,0.97
2023-04-20T00:42:33.306Z,0.70
2023-04-20T00:45:01.092Z,1.10
2023-04-20T00:47:28.951Z,0.98
2023-04-20T00:49:56.607Z,0.80
2023-04-20T00:52:24.414Z,0.70
2023-04-20T00:54:52.032Z,0.60
2023-04-20T00:57:24.242Z,0.90
2023-04-20T00:59:51.975Z,0.60
2023-04-20T01:02:19.772Z,1.10
2023-04-20T01:04:47.826Z,0.83
2023-04-20T01:07:15.685Z,0.88
2023-04-20T01:09:43.408Z,0.63
2023-04-20T01:12:11.879Z,0.60
2023-04-20T01:14:39.590Z,0.60
2023-04-20T01:17:07.281Z,0.77
2023-04-20T01:19:35.101Z,0.75
2023-04-20T01:22:02.750Z,0.90
2023-04-20T01:24:30.429Z,1.20
2023-04-20T01:26:58.637Z,0.80
2023-04-20T01:29:26.393Z,1.20
2023-04-20T01:31:54.042Z,0.80
2023-04-20T01:34:21.837Z,0.90
2023-04-20T01:36:49.499Z,0.93
2023-04-20T01:39:18.233Z,0.73
2023-04-20T01:41:46.278Z,0.82
2023-04-20T01:44:13.882Z,1.10
2023-04-20T01:46:41.623Z,0.90
2023-04-20T01:49:09.494Z,0.93
2023-04-20T01:51:37.396Z,0.98
2023-04-20T01:54:05.054Z,0.80
2023-04-20T01:56:32.764Z,1.00
2023-04-20T01:59:00.621Z,0.68
2023-04-20T02:01:28.569Z,0.77
2023-04-20T02:03:56.590Z,0.70
2023-04-20T02:06:24.284Z,0.80
2023-04-20T02:08:52.055Z,0.65
2023-04-20T02:11:19.689Z,1.00
2023-04-20T02:13:47.373Z,1.00
2023-04-20T02:16:14.991Z,0.90
2023-04-20T02:18:42.908Z,1.20
2023-04-20T02:21:10.875Z,0.90
2023-04-20T02:23:38.614Z,0.98
2023-04-20T02:26:06.620Z,0.82
2023-04-20T02:28:34.341Z,1.10
2023-04-20T02:31:02.191Z,1.00
2023-04-20T02:33:29.956Z,1.33
2023-04-20T02:35:57.727Z,1.37
2023-04-20T02:38:25.531Z,1.23
2023-04-20T02:40:53.577Z,1.20
2023-04-20T02:43:21.272Z,1.10
2023-04-20T02:45:49.011Z,1.38
2023-04-20T02:48:16.847Z,1.33
2023-04-20T02:50:44.541Z,1.08
2023-04-20T02:53:12.179Z,1.20
2023-04-20T02:55:39.878Z,1.20
2023-04-20T02:58:07.567Z,1.42
2023-04-20T03:00:35.187Z,0.87
2023-04-20T03:03:03.388Z,1.45
2023-04-20T03:05:31.254Z,1.23
2023-04-20T03:07:59.010Z,1.33
2023-04-20T03:10:26.940Z,1.15
2023-04-20T03:12:54.673Z,1.33
2023-04-20T03:15:22.851Z,0.77
2023-04-20T03:17:52.673Z,1.00
2023-04-20T03:20:21.738Z,1.00
2023-04-20T03:22:49.493Z,0.60
2023-04-20T03:25:17.238Z,0.90
2023-04-20T03:27:46.937Z,1.00
2023-04-20T03:30:14.882Z,1.13
2023-04-20T03:32:42.791Z,0.90
2023-04-20T03:35:10.686Z,1.13
2023-04-20T03:37:38.554Z,0.80
2023-04-20T03:40:10.585Z,0.80
2023-04-20T03:42:38.272Z,1.17
2023-04-20T03:45:06.916Z,1.02
2023-04-20T03:47:34.723Z,0.90
2023-04-20T03:50:02.473Z,0.97
2023-04-20T03:52:30.079Z,0.90
2023-04-20T03:55:00.277Z,0.90
2023-04-20T03:57:28.100Z,1.10
2023-04-20T03:59:56.059Z,1.20
2023-04-20T04:02:23.974Z,0.93
2023-04-20T04:04:52.121Z,1.33
2023-04-20T04:07:19.928Z,0.40
2023-04-20T04:09:47.559Z,0.70
2023-04-20T04:12:15.777Z,0.95
2023-04-20T04:14:43.504Z,0.53
2023-04-20T04:17:11.472Z,0.75
2023-04-20T04:19:39.241Z,0.85
2023-04-20T04:22:07.128Z,0.80
2023-04-20T04:24:37.149Z,0.43
2023-04-20T04:27:06.240Z,0.98
2023-04-20T04:29:36.050Z,0.85
2023-04-20T04:32:04.407Z,0.80
2023-04-20T04:34:35.756Z,0.80
2023-04-20T04:37:04.039Z,0.63
2023-04-20T04:39:31.725Z,0.93
2023-04-20T04:41:59.457Z,0.80
2023-04-20T04:44:28.917Z,1.15
2023-04-20T04:46:57.674Z,0.57
2023-04-20T04:49:25.477Z,0.68
2023-04-20T04:51:53.228Z,0.70
2023-04-20T04:54:20.855Z,0.65
2023-04-20T04:56:48.633Z,0.90
2023-04-20T04:59:16.529Z,0.80
2023-04-20T05:01:44.484Z,0.80
2023-04-20T05:04:12.320Z,0.87
2023-04-20T05:06:40.092Z,0.90
2023-04-20T05:09:07.905Z,0.60
2023-04-20T05:11:35.544Z,1.27
2023-04-20T05:14:03.707Z,0.75
2023-04-20T05:16:31.436Z,0.75
2023-04-20T05:18:59.282Z,0.90
2023-04-20T05:21:26.968Z,0.80
2023-04-20T05:23:55.812Z,0.75
2023-04-20T05:26:23.445Z,0.90
2023-04-20T05:28:54.293Z,0.83
2023-04-20T05:31:22.098Z,0.32
2023-04-20T05:33:49.844Z,1.15
2023-04-20T05:36:17.458Z,1.10
2023-04-20T05:38:45.491Z,0.70
2023-04-20T05:41:13.161Z,0.90
2023-04-20T05:43:41.242Z,0.70
2023-04-20T05:46:09.612Z,0.70
2023-04-20T05:48:37.270Z,0.60
2023-04-20T05:51:05.043Z,0.95
2023-04-20T05:53:32.628Z,0.30
2023-04-20T05:56:00.345Z,0.25
2023-04-20T05:58:28.107Z,0.30
2023-04-20T06:00:56.043Z,0.37
2023-04-20T06:03:23.803Z,0.60
2023-04-20T06:05:51.728Z,1.60
2023-04-20T06:08:19.817Z,0.20
2023-04-20T06:10:47.575Z,0.57
2023-04-20T06:13:15.485Z,0.70
2023-04-20T06:15:43.244Z,0.40
2023-04-20T06:18:11.305Z,1.33
2023-04-20T06:20:39.695Z,0.77
2023-04-20T06:23:07.388Z,0.57
2023-04-20T06:25:36.744Z,0.33
2023-04-20T06:28:04.765Z,0.85
2023-04-20T06:30:33.864Z,0.20
2023-04-20T06:33:02.186Z,0.70
2023-04-20T06:35:30.027Z,0.40
2023-04-20T06:37:58.039Z,0.65
2023-04-20T06:40:29.465Z,0.77
2023-04-20T06:42:57.233Z,0.67
2023-04-20T06:45:25.026Z,0.45
2023-04-20T06:47:52.933Z,0.50
2023-04-20T06:50:20.869Z,1.13
2023-04-20T06:52:48.621Z,0.50
2023-04-20T06:55:16.323Z,0.57
2023-04-20T06:57:44.752Z,0.40
2023-04-20T07:00:12.757Z,0.30
2023-04-20T07:02:47.139Z,0.50
2023-04-20T07:05:15.248Z,0.65
2023-04-20T07:07:43.493Z,0.83
2023-04-20T07:10:12.149Z,1.00
2023-04-20T07:12:42.676Z,0.50
2023-04-20T07:15:11.318Z,0.57
2023-04-20T07:17:39.177Z,0.63
2023-04-20T07:20:10.404Z,0.50
2023-04-20T07:22:38.466Z,0.52
2023-04-20T07:25:06.749Z,1.47
2023-04-20T07:27:41.299Z,0.75
2023-04-20T07:30:09.481Z,0.60
2023-04-20T07:32:37.444Z,0.50
2023-04-20T07:35:06.154Z,0.35
2023-04-20T07:37:34.309Z,0.50
2023-04-20T07:40:02.214Z,0.97
2023-04-20T07:42:29.999Z,0.50
2023-04-20T07:44:57.689Z,0.77
2023-04-20T07:47:25.489Z,0.40
2023-04-20T07:49:53.251Z,0.80
2023-04-20T07:52:21.020Z,0.73
2023-04-20T07:54:48.749Z,0.63
2023-04-20T07:57:16.658Z,1.07
2023-04-20T07:59:46.288Z,0.50
2023-04-20T08:02:14.035Z,1.20
2023-04-20T08:04:42.310Z,1.10
2023-04-20T08:07:14.395Z,0.40
2023-04-20T08:09:42.047Z,1.15
2023-04-20T08:12:09.871Z,1.25
2023-04-20T08:14:38.380Z,0.53
2023-04-20T08:17:06.379Z,1.08
2023-04-20T08:19:34.168Z,0.77
2023-04-20T08:22:03.561Z,0.40
2023-04-20T08:24:31.367Z,0.65
2023-04-20T08:26:59.537Z,0.75
2023-04-20T08:29:27.372Z,0.80
2023-04-20T08:31:55.007Z,1.15
2023-04-20T08:34:22.782Z,0.60
2023-04-20T08:36:51.079Z,0.60
2023-04-20T08:39:22.421Z,0.60
2023-04-20T08:41:53.954Z,0.73
2023-04-20T08:44:21.883Z,0.80
2023-04-20T08:46:50.088Z,0.80
2023-04-20T08:49:18.301Z,1.27
2023-04-20T08:51:46.267Z,0.80
2023-04-20T08:54:14.369Z,1.87
2023-04-20T08:56:48.924Z,0.50
2023-04-20T08:59:17.151Z,0.90
2023-04-20T09:01:45.259Z,1.05
2023-04-20T09:04:19.166Z,1.23
2023-04-20T09:06:47.858Z,0.63
2023-04-20T09:09:15.619Z,1.05
2023-04-20T09:11:43.425Z,1.47
2023-04-20T09:14:14.476Z,0.60
2023-04-20T09:16:51.549Z,1.20
2023-04-20T09:19:23.263Z,1.20
2023-04-20T09:21:51.389Z,1.45
2023-04-20T09:24:20.191Z,1.08
2023-04-20T09:26:47.943Z,0.60
2023-04-20T09:29:19.235Z,1.07
2023-04-20T09:31:47.136Z,1.25
2023-04-20T09:34:15.151Z,0.73
2023-04-20T09:36:43.663Z,0.87
2023-04-20T09:39:12.190Z,1.00
2023-04-20T09:41:40.442Z,0.65
2023-04-20T09:44:08.475Z,0.83
2023-04-20T09:46:36.754Z,1.30
2023-04-20T09:49:05.051Z,0.60
2023-04-20T09:51:36.294Z,0.80
2023-04-20T09:54:06.364Z,1.87
2023-04-20T09:56:34.771Z,1.55
2023-04-20T09:59:03.762Z,1.02
2023-04-20T10:01:32.306Z,1.13
2023-04-20T10:04:00.778Z,1.45
2023-04-20T10:06:29.646Z,1.05
2023-04-20T10:08:57.410Z,1.50
2023-04-20T10:11:44.664Z,1.67
2023-04-20T10:14:23.864Z,0.95
2023-04-20T10:17:04.618Z,1.38
2023-04-20T10:19:39.382Z,1.33
2023-04-20T10:22:07.554Z,1.20
2023-04-20T10:24:36.032Z,1.63
2023-04-20T10:27:04.213Z,0.83
2023-04-20T10:29:35.039Z,1.42
2023-04-20T10:32:04.007Z,1.08
2023-04-20T10:34:32.474Z,0.60
2023-04-20T10:37:12.749Z,1.48
2023-04-20T10:39:46.656Z,1.20
2023-04-20T10:42:16.018Z,1.48
2023-04-20T10:44:48.560Z,2.00
2023-04-20T10:47:16.667Z,2.55
2023-04-20T10:49:44.610Z,0.88
2023-04-20T10:52:12.371Z,1.63
2023-04-20T10:54:40.726Z,0.82
2023-04-20T10:57:09.727Z,1.55
2023-04-20T10:59:42.255Z,1.20
2023-04-20T11:02:12.904Z,0.98
2023-04-20T11:04:40.749Z,2.15
2023-04-20T11:07:09.161Z,0.80
2023-04-20T11:09:38.570Z,1.33
2023-04-20T11:12:09.680Z,1.98
2023-04-20T11:14:38.575Z,0.82
2023-04-20T11:17:07.273Z,2.00
2023-04-20T11:19:35.536Z,1.52
2023-04-20T11:22:03.622Z,1.77
2023-04-20T11:24:32.956Z,1.73
2023-04-20T11:27:02.102Z,1.70
2023-04-20T11:29:39.177Z,2.47
2023-04-20T11:32:07.723Z,1.55
2023-04-20T11:34:35.823Z,0.87
2023-04-20T11:37:10.671Z,1.30
2023-04-20T11:39:38.452Z,1.63
2023-04-20T11:42:06.526Z,1.30
2023-04-20T11:44:36.744Z,0.90
2023-04-20T11:47:04.938Z,1.23
2023-04-20T11:49:32.775Z,1.30
2023-04-20T11:52:00.870Z,2.15
2023-04-20T11:54:30.020Z,1.23
2023-04-20T11:56:57.771Z,1.65
2023-04-20T11:59:25.579Z,1.20
2023-04-20T12:01:53.318Z,1.20
2023-04-20T12:04:22.051Z,1.52
2023-04-20T12:06:49.918Z,1.97
2023-04-20T12:09:18.018Z,1.55
2023-04-20T12:11:45.904Z,0.85
2023-04-20T12:14:14.607Z,1.43
2023-04-20T12:16:42.407Z,1.38
2023-04-20T12:19:10.151Z,0.85
2023-04-20T12:21:37.974Z,1.33
2023-04-20T12:24:05.705Z,1.27
2023-04-20T12:26:38.753Z,1.58
2023-04-20T12:29:07.515Z,0.82
2023-04-20T12:31:36.084Z,1.43
2023-04-20T12:34:04.442Z,1.13
2023-04-20T12:36:32.701Z,1.23
2023-04-20T12:39:00.602Z,1.33
2023-04-20T12:41:28.438Z,0.93
2023-04-20T12:43:56.463Z,1.10
2023-04-20T12:46:24.188Z,1.13
2023-04-20T12:48:52.149Z,0.93
2023-04-20T12:51:19.808Z,1.58
2023-04-20T12:53:47.553Z,1.48
2023-04-20T12:56:15.458Z,1.57
2023-04-20T12:58:43.235Z,1.40
2023-04-20T13:01:10.986Z,1.33
2023-04-20T13:03:39.033Z,1.63
2023-04-20T13:06:07.126Z,1.02
2023-04-20T13:08:37.242Z,1.15
2023-04-20T13:11:05.025Z,1.70
2023-04-20T13:13:32.736Z,2.87
2023-04-20T13:24:27.313Z,1.30
2023-04-20T14:26:04.232Z,2.33
2023-04-20T14:40:45.542Z,1.80
2023-04-20T14:55:40.951Z,2.13
2023-04-20T15:17:03.771Z,2.80
2023-04-20T15:35:56.690Z,3.20
2023-04-20T15:46:01.189Z,1.48
2023-04-20T16:12:46.272Z,2.83
2023-04-20T16:15:22.790Z,2.42
2023-04-20T16:17:50.661Z,3.20
2023-04-20T16:20:18.436Z,3.40
2023-04-20T16:22:46.227Z,2.08
2023-04-20T16:25:22.705Z,2.33
2023-04-20T16:27:51.787Z,2.10
2023-04-20T16:30:19.449Z,2.25
2023-04-20T16:32:50.277Z,2.67
2023-04-20T16:35:18.022Z,2.00
2023-04-20T16:37:46.817Z,2.33
2023-04-20T16:40:14.457Z,1.55
2023-04-20T16:42:42.334Z,3.07
2023-04-20T16:45:09.996Z,2.70
2023-04-20T16:47:37.843Z,2.50
2023-04-20T16:50:07.450Z,3.67
2023-04-20T16:52:35.328Z,2.13
2023-04-20T16:55:03.182Z,2.45
2023-04-20T16:57:32.128Z,2.87
2023-04-20T16:59:59.841Z,2.75
2023-04-20T17:02:33.049Z,2.70
2023-04-20T17:05:01.314Z,2.58
2023-04-20T17:07:29.308Z,3.67
2023-04-20T17:09:57.012Z,3.45
2023-04-20T17:12:24.714Z,2.92
2023-04-20T17:14:53.579Z,2.70
2023-04-20T17:17:21.412Z,2.03
2023-04-20T17:19:49.040Z,1.90
2023-04-20T17:22:16.952Z,2.87
2023-04-20T17:24:44.650Z,2.20
2023-04-20T17:27:13.521Z,3.20
2023-04-20T17:29:43.162Z,2.50
2023-04-20T17:32:11.708Z,2.17
2023-04-20T17:34:41.318Z,2.25
2023-04-20T17:37:12.028Z,1.60
2023-04-20T17:39:39.692Z,1.87
2023-04-20T17:42:07.500Z,3.33
2023-04-20T17:44:35.254Z,3.05
2023-04-20T17:47:03.608Z,3.13
2023-04-20T17:49:32.595Z,3.38
2023-04-20T17:52:00.318Z,3.38
2023-04-20T17:54:28.715Z,1.80
2023-04-20T17:56:59.522Z,1.77
2023-04-20T17:59:29.137Z,2.92
2023-04-20T18:01:58.308Z,1.65
2023-04-20T18:04:26.406Z,2.43
2023-04-20T18:06:54.456Z,2.55
2023-04-20T18:09:22.230Z,2.30
2023-04-20T18:11:52.652Z,3.20
2023-04-20T18:14:21.283Z,2.38
2023-04-20T18:16:52.125Z,2.30
2023-04-20T18:19:19.914Z,3.00
2023-04-20T18:21:49.808Z,3.03
2023-04-20T18:24:25.909Z,2.45
2023-04-20T18:26:56.996Z,2.72
2023-04-20T18:29:30.059Z,1.83
2023-04-20T18:31:59.659Z,3.17
2023-04-20T18:34:31.093Z,3.15
2023-04-20T18:36:59.265Z,2.80
2023-04-20T18:39:27.002Z,1.90
2023-04-20T18:41:54.733Z,2.95
2023-04-20T18:44:22.766Z,3.65
2023-04-20T18:46:50.925Z,1.93
2023-04-20T18:49:18.702Z,2.63
2023-04-20T18:51:46.437Z,2.75
2023-04-20T18:54:14.126Z,3.57
2023-04-20T18:56:41.943Z,2.80
2023-04-20T18:59:11.035Z,3.70
2023-04-20T19:01:40.758Z,3.73
2023-04-20T19:04:09.103Z,2.75
2023-04-20T19:06:37.808Z,3.58
2023-04-20T19:09:08.058Z,3.25
2023-04-20T19:11:36.053Z,2.60
2023-04-20T19:14:03.809Z,3.50
2023-04-20T19:16:31.719Z,4.25
2023-04-20T19:18:59.791Z,4.27
2023-04-20T19:21:27.471Z,3.47
2023-04-20T19:23:55.155Z,3.92
2023-04-20T19:26:23.630Z,4.07
2023-04-20T19:28:53.821Z,4.72
2023-04-20T19:31:21.764Z,4.32
2023-04-20T19:33:49.450Z,3.75
2023-04-20T19:36:22.535Z,4.40
2023-04-20T19:38:50.283Z,4.63
2023-04-20T19:41:23.148Z,4.72
2023-04-20T19:43:50.834Z,4.70
2023-04-20T19:46:19.710Z,3.88
2023-04-20T19:48:47.503Z,4.97
2023-04-20T19:51:15.633Z,4.83
2023-04-20T19:53:43.337Z,5.07
2023-04-20T19:56:11.026Z,5.53
2023-04-20T19:58:38.752Z,5.18
2023-04-20T20:01:06.578Z,5.23
2023-04-20T20:03:34.427Z,5.63
2023-04-20T20:06:02.324Z,5.45
2023-04-20T20:08:30.280Z,4.90
2023-04-20T20:10:58.090Z,4.60
2023-04-20T20:13:26.475Z,5.18
2023-04-20T20:15:54.222Z,4.90
2023-04-20T20:18:22.410Z,5.93
2023-04-20T20:20:51.483Z,5.90
2023-04-20T20:23:19.222Z,6.32
2023-04-20T20:25:46.854Z,6.20
2023-04-20T20:28:14.484Z,6.30
2023-04-20T20:30:45.245Z,6.57
2023-04-20T20:33:13.144Z,6.97
2023-04-20T20:35:40.973Z,6.82
2023-04-20T20:38:09.055Z,7.07
2023-04-20T20:40:36.733Z,6.67
2023-04-20T20:43:04.677Z,7.35
2023-04-20T20:45:32.642Z,6.97
2023-04-20T20:48:00.781Z,7.90
2023-04-20T20:50:28.473Z,7.90
2023-04-20T20:52:56.364Z,7.72
2023-04-20T20:55:24.085Z,8.18
2023-04-20T20:57:51.856Z,7.63
2023-04-20T21:00:19.534Z,8.50
2023-04-20T21:02:47.366Z,7.07
2023-04-20T21:05:15.041Z,7.63
2023-04-20T21:07:42.793Z,9.38
2023-04-20T21:10:11.971Z,6.43
2023-04-20T21:12:39.798Z,7.00
2023-04-20T21:15:07.755Z,6.90
2023-04-20T21:17:35.569Z,7.20
2023-04-20T21:20:05.864Z,6.22
2023-04-20T21:22:33.492Z,7.67
2023-04-20T21:25:01.161Z,8.00
2023-04-20T21:27:28.971Z,9.40
2023-04-20T21:29:56.706Z,8.07
2023-04-20T21:32:24.373Z,8.60
2023-04-20T21:34:52.724Z,8.63
2023-04-20T21:37:20.972Z,8.38
2023-04-20T21:39:50.809Z,8.63
2023-04-20T21:42:18.742Z,7.07
2023-04-20T21:44:46.355Z,9.00
2023-04-20T21:47:14.019Z,7.80
2023-04-20T21:49:41.618Z,8.38
2023-04-20T21:52:09.248Z,6.07
2023-04-20T21:54:36.867Z,6.70
2023-04-20T21:57:04.623Z,4.25
2023-04-20T21:59:32.280Z,6.65
2023-04-20T22:02:01.206Z,6.65
2023-04-20T22:04:29.806Z,7.50
2023-04-20T22:06:57.749Z,4.60
2023-04-20T22:09:26.002Z,5.72
2023-04-20T22:11:53.848Z,6.20
2023-04-20T22:14:21.647Z,6.07
2023-04-20T22:16:49.343Z,5.85
2023-04-20T22:19:17.698Z,7.23
2023-04-20T22:21:45.450Z,6.63
2023-04-20T22:24:13.162Z,4.57
2023-04-20T22:26:40.868Z,6.82
2023-04-20T22:29:08.585Z,6.93
2023-04-20T22:31:36.259Z,6.90
2023-04-20T22:34:04.081Z,6.75
2023-04-20T22:36:32.646Z,6.53
2023-04-20T22:39:00.607Z,6.72
2023-04-20T22:41:28.293Z,7.20
2023-04-20T22:43:55.949Z,6.23
2023-04-20T22:46:23.668Z,5.63
2023-04-20T22:48:53.789Z,5.43
2023-04-20T22:51:21.534Z,6.45
2023-04-20T22:53:49.192Z,5.73
2023-04-20T22:56:16.833Z,5.72
2023-04-20T22:58:44.464Z,5.90
2023-04-20T23:01:12.129Z,5.50
2023-04-20T23:03:39.925Z,6.35
2023-04-20T23:06:07.743Z,3.28
2023-04-20T23:08:35.495Z,4.60
2023-04-20T23:11:04.810Z,5.43
2023-04-20T23:13:33.377Z,6.05
2023-04-20T23:16:01.126Z,5.55
2023-04-20T23:18:28.961Z,5.13
2023-04-20T23:20:57.156Z,4.13
2023-04-20T23:23:24.860Z,4.80
2023-04-20T23:25:52.536Z,5.70
2023-04-20T23:28:20.167Z,5.97
2023-04-20T23:30:47.794Z,5.82
2023-04-20T23:33:15.992Z,5.63
2023-04-20T23:35:43.762Z,6.18
2023-04-20T23:38:11.389Z,5.28
2023-04-20T23:40:39.572Z,6.22
2023-04-20T23:43:07.372Z,4.33
2023-04-20T23:45:35.087Z,4.40
2023-04-20T23:48:02.994Z,5.95
2023-04-20T23:50:30.912Z,6.53
2023-04-20T23:52:58.617Z,6.88
2023-04-20T23:55:26.293Z,4.55
2023-04-20T23:57:53.988Z,5.57
